Weather at Phu Cat Airport

Public forecast

Using degrees Celsius for public forecast. Weather courtesy of forecast.io.

Closest aviation weather report (METAR) to Phu Cat Airport

Closest report is Cam Ranh International Airport / Cam Ranh Air Base, 117.9 nm (218.4 km) S. Retrieved 2021/01/20 08:30 UTC (1 minute ago):

VVCR 200830Z 06013KT 9999 FEW015 26/20 Q1011 NOSIG

Closest aviation forecast (TAF) to Phu Cat Airport

Closest forecast is Cam Ranh International Airport / Cam Ranh Air Base, 117.9 nm (218.4 km) S. Retrieved 2021/01/20 06:00 UTC (3 hours ago):

TAF VVCR 200500Z 2006/2106 04012KT 9999 FEW015 SCT060 BECMG 2016/2018 34005KT BECMG 2102/2103 04010KT